createdAt,value
2019-02-24T00:00:44.290Z,0.00
2019-02-24T00:01:44.330Z,0.00
2019-02-24T00:02:44.267Z,0.00
2019-02-24T00:03:46.367Z,0.00
2019-02-24T00:04:44.248Z,0.00
2019-02-24T00:05:53.242Z,0.00
2019-02-24T00:06:44.238Z,0.00
2019-02-24T00:07:44.245Z,0.00
2019-02-24T00:08:44.204Z,0.00
2019-02-24T00:09:51.734Z,0.00
2019-02-24T00:10:44.184Z,0.00
2019-02-24T00:11:45.219Z,0.00
2019-02-24T00:12:44.161Z,0.00
2019-02-24T00:13:44.190Z,0.00
2019-02-24T00:14:44.140Z,0.00
2019-02-24T00:15:44.195Z,0.00
2019-02-24T00:16:44.132Z,0.00
2019-02-24T00:17:44.208Z,0.00
2019-02-24T00:18:44.096Z,0.00
2019-02-24T00:19:44.120Z,0.00
2019-02-24T00:20:44.073Z,0.00
2019-02-24T00:21:44.161Z,0.00
2019-02-24T00:22:44.062Z,0.00
2019-02-24T00:23:44.149Z,0.00
2019-02-24T00:24:44.033Z,0.00
2019-02-24T00:25:44.059Z,0.00
2019-02-24T00:26:44.026Z,0.00
2019-02-24T00:27:44.072Z,0.00
2019-02-24T00:28:43.993Z,0.00
2019-02-24T00:29:44.085Z,0.00
2019-02-24T00:30:43.972Z,0.00
2019-02-24T00:31:44.023Z,0.00
2019-02-24T00:32:43.956Z,0.00
2019-02-24T00:33:44.010Z,0.00
2019-02-24T00:34:43.931Z,0.00
2019-02-24T00:35:44.024Z,0.00
2019-02-24T00:36:43.942Z,0.00
2019-02-24T00:37:43.981Z,0.00
2019-02-24T00:38:43.882Z,0.00
2019-02-24T00:39:43.950Z,0.00
2019-02-24T00:40:43.867Z,0.00
2019-02-24T00:41:43.997Z,0.00
2019-02-24T00:42:43.853Z,0.00
2019-02-24T00:43:43.874Z,0.00
2019-02-24T00:44:43.820Z,0.00
2019-02-24T00:45:43.894Z,0.00
2019-02-24T00:46:43.807Z,0.00
2019-02-24T00:47:43.828Z,0.00
2019-02-24T00:48:43.777Z,0.00
2019-02-24T00:49:43.814Z,0.00
2019-02-24T00:50:43.803Z,0.00
2019-02-24T00:51:44.854Z,0.00
2019-02-24T00:52:43.751Z,0.00
2019-02-24T00:53:51.729Z,0.00
2019-02-24T00:54:43.716Z,0.00
2019-02-24T00:55:43.756Z,0.00
2019-02-24T00:56:43.692Z,0.00
2019-02-24T00:57:44.716Z,0.00
2019-02-24T00:58:43.674Z,0.00
2019-02-24T00:59:43.682Z,0.00
2019-02-24T01:00:43.648Z,0.00
2019-02-24T01:01:43.697Z,0.00
2019-02-24T01:02:43.642Z,0.00
2019-02-24T01:03:43.710Z,0.00
2019-02-24T01:04:43.607Z,0.00
2019-02-24T01:05:43.626Z,0.00
2019-02-24T01:06:43.587Z,0.00
2019-02-24T01:07:43.657Z,0.00
2019-02-24T01:08:43.576Z,0.00
2019-02-24T01:09:43.647Z,0.00
2019-02-24T01:10:43.551Z,0.00
2019-02-24T01:11:43.558Z,0.00
2019-02-24T01:12:43.536Z,0.00
2019-02-24T01:13:43.583Z,0.00
2019-02-24T01:14:43.503Z,0.00
2019-02-24T01:15:43.588Z,0.00
2019-02-24T01:16:43.481Z,0.00
2019-02-24T01:17:43.519Z,0.00
2019-02-24T01:18:43.462Z,0.00
2019-02-24T01:19:43.513Z,0.00
2019-02-24T01:20:43.438Z,0.00
2019-02-24T01:21:43.527Z,0.00
2019-02-24T01:22:43.434Z,0.00
2019-02-24T01:23:43.445Z,0.00
2019-02-24T01:24:43.402Z,0.00
2019-02-24T01:25:43.450Z,0.00
2019-02-24T01:26:43.377Z,0.00
2019-02-24T01:27:43.485Z,0.00
2019-02-24T01:28:43.354Z,0.00
2019-02-24T01:29:43.384Z,0.00
2019-02-24T01:30:43.332Z,0.00
2019-02-24T01:31:43.389Z,0.00
2019-02-24T01:32:43.326Z,0.00
2019-02-24T01:33:43.404Z,0.00
2019-02-24T01:34:43.293Z,0.00
2019-02-24T01:35:43.316Z,0.00
2019-02-24T01:36:43.269Z,0.00
2019-02-24T01:37:44.384Z,0.00
2019-02-24T01:38:43.249Z,0.00
2019-02-24T01:39:51.226Z,0.00
2019-02-24T01:40:43.226Z,0.00
2019-02-24T01:41:44.278Z,0.00
2019-02-24T01:42:43.220Z,0.00
2019-02-24T01:43:43.283Z,0.00
2019-02-24T01:44:43.184Z,0.00
2019-02-24T01:45:43.284Z,0.00
2019-02-24T01:46:43.165Z,0.00
2019-02-24T01:47:43.225Z,0.00
2019-02-24T01:48:43.143Z,0.00
2019-02-24T01:49:43.203Z,0.00
2019-02-24T01:50:43.121Z,0.00
2019-02-24T01:51:43.269Z,0.00
2019-02-24T01:52:43.101Z,0.00
2019-02-24T01:53:43.155Z,0.00
2019-02-24T01:54:43.082Z,0.00
2019-02-24T01:55:43.147Z,0.00
2019-02-24T01:56:43.060Z,0.00
2019-02-24T01:57:43.165Z,0.00
2019-02-24T01:58:43.052Z,0.00
2019-02-24T01:59:43.077Z,0.00
2019-02-24T02:00:43.016Z,0.00
2019-02-24T02:01:43.081Z,0.00
2019-02-24T02:02:42.998Z,0.00
2019-02-24T02:03:43.021Z,0.00
2019-02-24T02:04:42.975Z,0.00
2019-02-24T02:05:43.006Z,0.00
2019-02-24T02:06:42.952Z,0.00
2019-02-24T02:07:43.022Z,0.00
2019-02-24T02:08:42.945Z,0.00
2019-02-24T02:09:43.033Z,0.00
2019-02-24T02:10:42.911Z,0.00
2019-02-24T02:11:42.950Z,0.00
2019-02-24T02:12:43.286Z,0.00
2019-02-24T02:13:42.987Z,0.00
2019-02-24T02:14:42.869Z,0.00
2019-02-24T02:15:42.975Z,0.00
2019-02-24T02:16:42.853Z,0.00
2019-02-24T02:17:42.883Z,0.00
2019-02-24T02:18:42.848Z,0.00
2019-02-24T02:19:42.906Z,0.00
2019-02-24T02:20:42.807Z,0.00
2019-02-24T02:21:42.813Z,0.00
2019-02-24T02:22:42.784Z,0.00
2019-02-24T02:23:42.883Z,0.00
2019-02-24T02:24:42.784Z,0.00
2019-02-24T02:25:42.839Z,0.00
2019-02-24T02:26:42.742Z,0.00
2019-02-24T02:27:42.848Z,0.00
2019-02-24T02:28:44.157Z,0.00
2019-02-24T02:29:42.762Z,0.00
2019-02-24T02:30:42.706Z,0.00
2019-02-24T02:31:42.781Z,0.00
2019-02-24T02:32:42.682Z,0.00
2019-02-24T02:33:42.714Z,0.00
2019-02-24T02:34:42.657Z,0.00
2019-02-24T02:35:42.699Z,0.00
2019-02-24T02:36:42.637Z,0.00
2019-02-24T02:37:42.715Z,0.00
2019-02-24T02:38:42.630Z,0.00
2019-02-24T02:39:42.625Z,0.00
2019-02-24T02:40:42.596Z,0.00
2019-02-24T02:41:42.646Z,0.00
2019-02-24T02:42:42.574Z,0.00
2019-02-24T02:43:42.677Z,0.00
2019-02-24T02:44:42.555Z,0.00
2019-02-24T02:45:42.562Z,0.00
2019-02-24T02:46:42.533Z,0.00
2019-02-24T02:47:42.576Z,0.00
2019-02-24T02:48:42.525Z,0.00
2019-02-24T02:49:42.591Z,0.00
2019-02-24T02:50:42.493Z,0.00
2019-02-24T02:51:42.500Z,0.00
2019-02-24T02:52:42.466Z,0.00
2019-02-24T02:53:42.544Z,0.00
2019-02-24T02:54:42.449Z,0.00
2019-02-24T02:55:42.530Z,0.00
2019-02-24T02:56:42.429Z,0.00
2019-02-24T02:57:42.441Z,0.00
2019-02-24T02:58:42.404Z,0.00
2019-02-24T02:59:42.478Z,0.00
2019-02-24T03:00:42.384Z,0.00
2019-02-24T03:01:42.471Z,0.00
2019-02-24T03:02:42.371Z,0.00
2019-02-24T03:03:42.377Z,0.00
2019-02-24T03:04:42.360Z,0.00
2019-02-24T03:05:42.395Z,0.00
2019-02-24T03:06:42.322Z,0.00
2019-02-24T03:07:42.405Z,0.00
2019-02-24T03:08:42.308Z,0.00
2019-02-24T03:09:42.355Z,0.00
2019-02-24T03:10:42.278Z,0.00
2019-02-24T03:11:42.335Z,0.00
2019-02-24T03:12:42.273Z,0.00
2019-02-24T03:13:42.345Z,0.00
2019-02-24T03:14:42.258Z,0.00
2019-02-24T03:15:49.222Z,0.00
2019-02-24T03:16:42.215Z,0.00
2019-02-24T03:17:57.219Z,0.00
2019-02-24T03:18:42.201Z,0.00
2019-02-24T03:19:43.231Z,0.00
2019-02-24T03:20:42.173Z,0.00
2019-02-24T03:21:42.198Z,0.00
2019-02-24T03:22:42.178Z,0.00
2019-02-24T03:23:42.209Z,0.00
2019-02-24T03:24:42.146Z,0.00
2019-02-24T03:25:42.222Z,0.00
2019-02-24T03:26:42.111Z,0.00
2019-02-24T03:27:42.156Z,0.00
2019-02-24T03:28:42.107Z,0.00
2019-02-24T03:29:42.173Z,0.00
2019-02-24T03:30:42.080Z,0.00
2019-02-24T03:31:42.164Z,0.00
2019-02-24T03:32:42.048Z,0.00
2019-02-24T03:33:44.734Z,0.00
2019-02-24T03:34:42.026Z,0.00
2019-02-24T03:35:42.113Z,0.00
2019-02-24T03:36:42.005Z,0.00
2019-02-24T03:37:42.099Z,0.00
2019-02-24T03:38:41.987Z,0.00
2019-02-24T03:39:42.013Z,0.00
2019-02-24T03:40:41.980Z,0.00
2019-02-24T03:41:42.031Z,0.00
2019-02-24T03:42:41.945Z,0.00
2019-02-24T03:43:42.046Z,0.00
2019-02-24T03:44:41.921Z,0.00
2019-02-24T03:45:41.977Z,0.00
2019-02-24T03:46:41.901Z,0.00
2019-02-24T03:47:41.968Z,0.00
2019-02-24T03:48:41.879Z,0.00
2019-02-24T03:49:41.981Z,0.00
2019-02-24T03:50:41.882Z,0.00
2019-02-24T03:51:41.893Z,0.00
2019-02-24T03:52:41.837Z,0.00
2019-02-24T03:53:41.908Z,0.00
2019-02-24T03:54:41.815Z,0.00
2019-02-24T03:55:41.857Z,0.00
2019-02-24T03:56:41.797Z,0.00
2019-02-24T03:57:41.829Z,0.00
2019-02-24T03:58:41.773Z,0.00
2019-02-24T03:59:41.855Z,0.00
2019-02-24T04:00:41.768Z,0.00
2019-02-24T04:01:41.859Z,0.00
2019-02-24T04:02:41.731Z,0.00
2019-02-24T04:03:56.720Z,0.00
2019-02-24T04:04:41.710Z,0.00
2019-02-24T04:05:43.755Z,0.00
2019-02-24T04:06:41.688Z,0.00
2019-02-24T04:07:41.696Z,0.00
2019-02-24T04:08:41.666Z,0.00
2019-02-24T04:09:41.708Z,0.00
2019-02-24T04:10:41.664Z,0.00
2019-02-24T04:11:41.727Z,0.00
2019-02-24T04:12:41.629Z,0.00
2019-02-24T04:13:41.641Z,0.00
2019-02-24T04:14:41.603Z,0.00
2019-02-24T04:15:41.676Z,0.00
2019-02-24T04:16:41.585Z,0.00
2019-02-24T04:17:41.663Z,0.00
2019-02-24T04:18:41.574Z,0.00
2019-02-24T04:19:41.575Z,0.00
2019-02-24T04:20:41.557Z,0.00
2019-02-24T04:21:41.590Z,0.00
2019-02-24T04:22:41.521Z,0.00
2019-02-24T04:23:41.598Z,0.00
2019-02-24T04:24:41.498Z,0.00
2019-02-24T04:25:41.552Z,0.00
2019-02-24T04:26:41.478Z,0.00
2019-02-24T04:27:41.536Z,0.00
2019-02-24T04:28:41.458Z,0.00
2019-02-24T04:29:41.546Z,0.00
2019-02-24T04:30:41.438Z,0.00
2019-02-24T04:31:41.479Z,0.00
2019-02-24T04:32:41.421Z,0.00
2019-02-24T04:33:41.470Z,0.00
2019-02-24T04:34:41.392Z,0.00
2019-02-24T04:35:41.498Z,0.00
2019-02-24T04:36:41.387Z,0.00
2019-02-24T04:37:41.393Z,0.00
2019-02-24T04:38:41.352Z,0.00
2019-02-24T04:39:41.403Z,0.00
2019-02-24T04:40:41.336Z,0.00
2019-02-24T04:41:41.449Z,0.00
2019-02-24T04:42:41.313Z,0.00
2019-02-24T04:43:41.327Z,0.00
2019-02-24T04:44:41.290Z,0.00
2019-02-24T04:45:41.342Z,0.00
2019-02-24T04:46:41.282Z,0.00
2019-02-24T04:47:41.354Z,0.00
2019-02-24T04:48:41.246Z,0.00
2019-02-24T04:49:41.279Z,0.00
2019-02-24T04:50:41.227Z,0.00
2019-02-24T04:51:43.258Z,0.00
2019-02-24T04:52:41.208Z,0.00
2019-02-24T04:53:41.376Z,0.00
2019-02-24T04:54:41.192Z,0.00
2019-02-24T04:55:41.203Z,0.00
2019-02-24T04:56:41.178Z,0.00
2019-02-24T04:57:41.218Z,0.00
2019-02-24T04:58:41.142Z,0.00
2019-02-24T04:59:41.232Z,0.00
2019-02-24T05:00:41.126Z,0.00
2019-02-24T05:01:41.173Z,0.00
2019-02-24T05:02:41.100Z,0.00
2019-02-24T05:03:41.155Z,0.00
2019-02-24T05:04:41.077Z,0.00
2019-02-24T05:05:41.169Z,0.00
2019-02-24T05:06:41.077Z,0.00
2019-02-24T05:07:41.209Z,0.00
2019-02-24T05:08:41.039Z,0.00
2019-02-24T05:09:41.103Z,0.00
2019-02-24T05:10:41.016Z,0.00
2019-02-24T05:11:41.137Z,0.00
2019-02-24T05:12:41.004Z,0.00
2019-02-24T05:13:41.067Z,0.00
2019-02-24T05:14:40.976Z,0.00
2019-02-24T05:15:41.036Z,0.00
2019-02-24T05:16:40.989Z,0.00
2019-02-24T05:17:41.058Z,0.00
2019-02-24T05:18:40.936Z,0.00
2019-02-24T05:19:40.960Z,0.00
2019-02-24T05:20:40.925Z,0.00
2019-02-24T05:21:40.976Z,0.00
2019-02-24T05:22:40.903Z,0.00
2019-02-24T05:23:42.950Z,0.00
2019-02-24T05:24:40.874Z,0.00
2019-02-24T05:25:40.897Z,0.00
2019-02-24T05:26:40.846Z,0.00
2019-02-24T05:27:40.938Z,0.00
2019-02-24T05:28:40.830Z,0.00
2019-02-24T05:29:46.012Z,0.00
2019-02-24T05:30:41.806Z,0.00
2019-02-24T05:31:40.835Z,0.00
2019-02-24T05:32:40.800Z,0.00
2019-02-24T05:33:40.852Z,0.00
2019-02-24T05:34:40.765Z,0.00
2019-02-24T05:35:40.864Z,0.00
2019-02-24T05:36:40.740Z,0.00
2019-02-24T05:37:41.830Z,0.00
2019-02-24T05:38:40.723Z,0.00
2019-02-24T05:39:49.694Z,0.00
2019-02-24T05:40:40.706Z,0.00
2019-02-24T05:41:49.711Z,0.00
2019-02-24T05:42:42.505Z,0.00
2019-02-24T05:43:40.711Z,0.00
2019-02-24T05:44:40.661Z,0.00
2019-02-24T05:45:42.671Z,0.00
2019-02-24T05:46:40.641Z,0.00
2019-02-24T05:47:40.665Z,0.00
2019-02-24T05:48:40.619Z,0.00
2019-02-24T05:49:40.660Z,0.00
2019-02-24T05:50:40.602Z,0.00
2019-02-24T05:51:40.663Z,0.00
2019-02-24T05:52:40.593Z,0.00
2019-02-24T05:53:40.578Z,0.00
2019-02-24T05:54:40.558Z,0.00
2019-02-24T05:55:40.595Z,0.00
2019-02-24T05:56:40.533Z,0.00
2019-02-24T05:57:40.629Z,0.00
2019-02-24T05:58:40.513Z,0.00
2019-02-24T05:59:40.513Z,0.00
2019-02-24T06:00:40.491Z,0.00
2019-02-24T06:01:40.528Z,0.00
2019-02-24T06:02:40.484Z,0.00
2019-02-24T06:03:40.541Z,0.00
2019-02-24T06:04:40.449Z,0.00
2019-02-24T06:05:40.454Z,0.00
2019-02-24T06:06:40.426Z,0.00
2019-02-24T06:07:40.503Z,0.00
2019-02-24T06:08:40.409Z,0.00
2019-02-24T06:09:40.496Z,0.00
2019-02-24T06:10:40.387Z,0.00
2019-02-24T06:11:40.393Z,0.00
2019-02-24T06:12:40.414Z,0.00
2019-02-24T06:13:40.409Z,0.00
2019-02-24T06:14:40.346Z,5.62
2019-02-24T06:15:40.421Z,5.62
2019-02-24T06:16:40.323Z,5.62
2019-02-24T06:17:40.358Z,5.62
2019-02-24T06:18:40.301Z,5.62
2019-02-24T06:19:40.346Z,5.62
2019-02-24T06:20:40.280Z,11.25
2019-02-24T06:21:40.361Z,11.25
2019-02-24T06:22:40.274Z,11.25
2019-02-24T06:23:40.273Z,11.25
2019-02-24T06:24:40.240Z,16.88
2019-02-24T06:25:40.286Z,16.88
2019-02-24T06:26:40.217Z,16.88
2019-02-24T06:27:43.702Z,16.88
2019-02-24T06:28:40.195Z,22.50
2019-02-24T06:29:40.212Z,22.50
2019-02-24T06:30:40.174Z,22.50
2019-02-24T06:31:47.699Z,28.12
2019-02-24T06:32:40.169Z,28.12
2019-02-24T06:33:42.182Z,28.12
2019-02-24T06:34:40.137Z,33.75
2019-02-24T06:35:40.147Z,33.75
2019-02-24T06:36:40.113Z,39.38
2019-02-24T06:37:40.192Z,39.38
2019-02-24T06:38:40.108Z,45.00
2019-02-24T06:39:40.174Z,50.62
2019-02-24T06:40:40.086Z,50.62
2019-02-24T06:41:40.086Z,56.25
2019-02-24T06:42:40.061Z,61.88
2019-02-24T06:43:40.131Z,61.88
2019-02-24T06:44:40.035Z,67.50
2019-02-24T06:45:40.114Z,67.50
2019-02-24T06:46:40.008Z,67.50
2019-02-24T06:47:40.026Z,78.75
2019-02-24T06:48:40.001Z,95.62
2019-02-24T06:49:40.037Z,101.25
2019-02-24T06:50:39.966Z,101.25
2019-02-24T06:51:40.056Z,106.88
2019-02-24T06:52:39.951Z,106.88
2019-02-24T06:53:39.994Z,106.88
2019-02-24T06:54:39.923Z,112.50
2019-02-24T06:55:39.979Z,112.50
2019-02-24T06:56:39.903Z,118.12
2019-02-24T06:57:39.993Z,123.75
2019-02-24T06:58:39.948Z,123.75
2019-02-24T06:59:39.905Z,123.75
2019-02-24T07:00:39.857Z,129.38
2019-02-24T07:01:39.919Z,129.38
2019-02-24T07:02:39.837Z,135.00
2019-02-24T07:03:39.957Z,135.00
2019-02-24T07:04:39.820Z,146.25
2019-02-24T07:05:39.841Z,151.88
2019-02-24T07:06:39.793Z,157.50
2019-02-24T07:07:39.856Z,157.50
2019-02-24T07:08:39.788Z,168.75
2019-02-24T07:09:39.868Z,174.38
2019-02-24T07:10:39.757Z,180.00
2019-02-24T07:11:39.783Z,185.62
2019-02-24T07:12:39.728Z,191.25
2019-02-24T07:13:40.844Z,196.88
2019-02-24T07:14:39.710Z,202.50
2019-02-24T07:15:47.692Z,202.50
2019-02-24T07:16:39.689Z,208.12
2019-02-24T07:17:47.705Z,219.38
2019-02-24T07:18:39.679Z,219.38
2019-02-24T07:19:41.679Z,225.00
2019-02-24T07:20:39.643Z,230.62
2019-02-24T07:21:40.667Z,236.25
2019-02-24T07:22:39.626Z,241.88
2019-02-24T07:23:39.682Z,247.50
2019-02-24T07:24:39.607Z,253.12
2019-02-24T07:25:39.670Z,258.75
2019-02-24T07:26:39.583Z,264.38
2019-02-24T07:27:39.585Z,275.62
2019-02-24T07:28:39.585Z,286.88
2019-02-24T07:29:39.599Z,309.38
2019-02-24T07:30:39.534Z,348.75
2019-02-24T07:31:39.610Z,410.62
2019-02-24T07:32:39.529Z,450.00
2019-02-24T07:33:39.550Z,455.62
2019-02-24T07:34:39.489Z,438.75
2019-02-24T07:35:39.534Z,438.75
2019-02-24T07:36:39.470Z,455.62
2019-02-24T07:37:39.555Z,478.12
2019-02-24T07:38:39.466Z,528.75
2019-02-24T07:39:39.459Z,601.88
2019-02-24T07:40:39.428Z,658.12
2019-02-24T07:41:39.474Z,703.12
2019-02-24T07:42:39.401Z,765.00
2019-02-24T07:43:39.515Z,810.00
2019-02-24T07:44:39.382Z,911.25
2019-02-24T07:45:39.405Z,928.12
2019-02-24T07:46:39.361Z,939.38
2019-02-24T07:47:39.412Z,961.88
2019-02-24T07:48:39.352Z,945.00
2019-02-24T07:49:39.431Z,945.00
2019-02-24T07:50:39.317Z,905.62
2019-02-24T07:51:39.336Z,888.75
2019-02-24T07:52:39.291Z,916.88
2019-02-24T07:53:39.376Z,888.75
2019-02-24T07:54:39.270Z,849.38
2019-02-24T07:55:39.363Z,877.50
2019-02-24T07:56:39.259Z,916.88
2019-02-24T07:57:39.280Z,905.62
2019-02-24T07:58:39.242Z,843.75
2019-02-24T07:59:39.293Z,855.00
2019-02-24T08:00:39.203Z,871.88
2019-02-24T08:01:39.306Z,849.38
2019-02-24T08:02:39.183Z,866.25
2019-02-24T08:03:44.281Z,793.12
2019-02-24T08:04:39.161Z,787.50
2019-02-24T08:05:40.257Z,832.50
2019-02-24T08:06:39.151Z,815.62
2019-02-24T08:07:39.152Z,810.00
2019-02-24T08:08:39.169Z,838.12
2019-02-24T08:09:39.153Z,821.25
2019-02-24T08:10:39.102Z,776.25
2019-02-24T08:11:39.168Z,781.88
2019-02-24T08:12:39.078Z,765.00
2019-02-24T08:13:39.078Z,798.75
2019-02-24T08:14:39.071Z,832.50
2019-02-24T08:15:39.091Z,810.00
2019-02-24T08:16:39.027Z,838.12
2019-02-24T08:17:39.110Z,855.00
2019-02-24T08:18:39.005Z,826.88
2019-02-24T08:19:39.060Z,860.62
2019-02-24T08:20:38.986Z,849.38
2019-02-24T08:21:39.066Z,894.38
2019-02-24T08:22:38.967Z,888.75
2019-02-24T08:23:39.043Z,826.88
2019-02-24T08:24:38.961Z,849.38
2019-02-24T08:25:38.958Z,922.50
2019-02-24T08:26:38.932Z,1001.25
2019-02-24T08:27:38.992Z,973.12
2019-02-24T08:28:38.918Z,950.62
2019-02-24T08:29:38.906Z,950.62
2019-02-24T08:30:41.601Z,1006.88
2019-02-24T08:31:38.893Z,1035.00
2019-02-24T08:32:38.859Z,1023.75
2019-02-24T08:33:38.907Z,1074.38
2019-02-24T08:34:38.847Z,1198.12
2019-02-24T08:35:38.932Z,1237.50
2019-02-24T08:36:38.813Z,1231.88
2019-02-24T08:37:38.833Z,1355.62
2019-02-24T08:38:40.400Z,1597.50
2019-02-24T08:39:38.880Z,1777.50
2019-02-24T08:40:38.767Z,1946.25
2019-02-24T08:41:38.758Z,1805.62
2019-02-24T08:42:38.743Z,1366.88
2019-02-24T08:43:40.823Z,1057.50
2019-02-24T08:44:38.733Z,939.38
2019-02-24T08:45:45.751Z,883.12
2019-02-24T08:46:38.692Z,860.62
2019-02-24T08:47:38.697Z,849.38
2019-02-24T08:48:38.678Z,826.88
2019-02-24T08:49:38.754Z,815.62
2019-02-24T08:50:38.654Z,815.62
2019-02-24T08:51:40.671Z,810.00
2019-02-24T08:52:38.628Z,815.62
2019-02-24T08:53:39.660Z,815.62
2019-02-24T08:54:38.624Z,821.25
2019-02-24T08:55:38.648Z,821.25
2019-02-24T08:56:38.584Z,810.00
2019-02-24T08:57:38.663Z,798.75
2019-02-24T08:58:38.565Z,798.75
2019-02-24T08:59:38.601Z,787.50
2019-02-24T09:00:38.540Z,793.12
2019-02-24T09:01:38.594Z,810.00
2019-02-24T09:02:38.521Z,804.38
2019-02-24T09:03:38.601Z,871.88
2019-02-24T09:04:38.512Z,1293.75
2019-02-24T09:05:38.514Z,1676.25
2019-02-24T09:06:38.485Z,1710.00
2019-02-24T09:07:38.531Z,1861.88
2019-02-24T09:08:38.455Z,1845.00
2019-02-24T09:09:38.567Z,1861.88
2019-02-24T09:10:38.431Z,1923.75
2019-02-24T09:11:38.454Z,2013.75
2019-02-24T09:12:38.498Z,2030.62
2019-02-24T09:13:38.465Z,2098.12
2019-02-24T09:14:38.407Z,2143.12
2019-02-24T09:15:38.479Z,2143.12
2019-02-24T09:16:38.366Z,2143.12
2019-02-24T09:17:38.390Z,2199.38
2019-02-24T09:18:38.344Z,2216.25
2019-02-24T09:19:38.446Z,2238.75
2019-02-24T09:20:38.336Z,2216.25
2019-02-24T09:21:38.419Z,2250.00
2019-02-24T09:22:38.304Z,2278.12
2019-02-24T09:23:38.363Z,2295.00
2019-02-24T09:24:38.278Z,2278.12
2019-02-24T09:25:38.396Z,2407.50
2019-02-24T09:26:38.256Z,2418.75
2019-02-24T09:27:38.357Z,2379.38
2019-02-24T09:28:38.239Z,2390.62
2019-02-24T09:29:53.219Z,2424.38
2019-02-24T09:30:38.650Z,2508.75
2019-02-24T09:31:45.246Z,2508.75
2019-02-24T09:32:38.200Z,2435.62
2019-02-24T09:33:38.193Z,2413.12
2019-02-24T09:34:38.170Z,2503.12
2019-02-24T09:35:38.255Z,2508.75
2019-02-24T09:36:38.148Z,2491.88
2019-02-24T09:37:38.221Z,2503.12
2019-02-24T09:38:38.126Z,2480.62
2019-02-24T09:39:38.132Z,2446.88
2019-02-24T09:40:38.117Z,2463.75
2019-02-24T09:41:38.145Z,2581.88
2019-02-24T09:42:38.079Z,2638.12
2019-02-24T09:43:38.162Z,2598.75
2019-02-24T09:44:38.057Z,2660.62
2019-02-24T09:45:38.098Z,2638.12
2019-02-24T09:46:38.043Z,2688.75
2019-02-24T09:47:46.438Z,2683.12
2019-02-24T09:48:39.010Z,2722.50
2019-02-24T09:49:38.098Z,2784.38
2019-02-24T09:50:38.006Z,2705.62
2019-02-24T09:51:38.011Z,2694.38
2019-02-24T09:52:37.967Z,2705.62
2019-02-24T09:53:38.025Z,2773.12
2019-02-24T09:54:37.947Z,2728.12
2019-02-24T09:55:38.064Z,2739.38
2019-02-24T09:56:37.922Z,2812.50
2019-02-24T09:57:37.948Z,2767.50
2019-02-24T09:58:37.899Z,2750.62
2019-02-24T09:59:37.963Z,2767.50
2019-02-24T10:00:37.893Z,2756.25
2019-02-24T10:01:37.976Z,2846.25
2019-02-24T10:02:37.857Z,2795.62
2019-02-24T10:03:37.888Z,2829.38
2019-02-24T10:04:37.835Z,2953.12
2019-02-24T10:05:39.007Z,2925.00
2019-02-24T10:06:37.814Z,2885.62
2019-02-24T10:07:37.915Z,2868.75
2019-02-24T10:08:37.793Z,2896.88
2019-02-24T10:09:37.825Z,2953.12
2019-02-24T10:10:37.789Z,2908.12
2019-02-24T10:11:37.839Z,2986.88
2019-02-24T10:12:37.756Z,3093.75
2019-02-24T10:13:37.853Z,3093.75
2019-02-24T10:14:37.733Z,3105.00
2019-02-24T10:15:38.817Z,2975.62
2019-02-24T10:16:37.707Z,2981.25
2019-02-24T10:17:39.724Z,3065.62
2019-02-24T10:18:37.686Z,3110.62
2019-02-24T10:19:37.689Z,3172.50
2019-02-24T10:20:37.664Z,3060.00
2019-02-24T10:21:37.730Z,3133.12
2019-02-24T10:22:37.643Z,3166.88
2019-02-24T10:23:37.716Z,3172.50
2019-02-24T10:24:37.624Z,3206.25
2019-02-24T10:25:37.627Z,3279.38
2019-02-24T10:26:37.619Z,3200.62
2019-02-24T10:27:37.643Z,3110.62
2019-02-24T10:28:37.579Z,3223.12
2019-02-24T10:29:37.655Z,3166.88
2019-02-24T10:30:37.557Z,3279.38
2019-02-24T10:31:37.593Z,3273.75
2019-02-24T10:32:37.536Z,3211.88
2019-02-24T10:33:37.579Z,3189.38
2019-02-24T10:34:37.516Z,3183.75
2019-02-24T10:35:37.596Z,3166.88
2019-02-24T10:36:37.513Z,3183.75
2019-02-24T10:37:37.507Z,3217.50
2019-02-24T10:38:37.474Z,3313.12
2019-02-24T10:39:37.520Z,3352.50
2019-02-24T10:40:37.450Z,3386.25
2019-02-24T10:41:37.560Z,3414.38
2019-02-24T10:42:37.430Z,3442.50
2019-02-24T10:43:37.444Z,3358.12
2019-02-24T10:44:37.412Z,3307.50
2019-02-24T10:45:37.460Z,3380.62
2019-02-24T10:46:37.401Z,3346.88
2019-02-24T10:47:37.476Z,3318.75
2019-02-24T10:48:37.364Z,3346.88
2019-02-24T10:49:37.386Z,3386.25
2019-02-24T10:50:37.407Z,3352.50
2019-02-24T10:51:37.425Z,3403.12
2019-02-24T10:52:37.371Z,3346.88
2019-02-24T10:53:37.411Z,3330.00
2019-02-24T10:54:37.306Z,3330.00
2019-02-24T10:55:37.321Z,3363.75
2019-02-24T10:56:37.296Z,3442.50
2019-02-24T10:57:37.335Z,3470.62
2019-02-24T10:58:37.261Z,3420.00
2019-02-24T10:59:37.348Z,3346.88
2019-02-24T11:00:37.286Z,3369.38
2019-02-24T11:01:40.772Z,3380.62
2019-02-24T11:02:37.216Z,3408.75
2019-02-24T11:03:39.224Z,3448.12
2019-02-24T11:04:37.197Z,3498.75
2019-02-24T11:05:38.209Z,3493.12
2019-02-24T11:06:37.179Z,3498.75
2019-02-24T11:07:37.227Z,3375.00
2019-02-24T11:08:37.164Z,3386.25
2019-02-24T11:09:37.212Z,3369.38
2019-02-24T11:10:37.133Z,3487.50
2019-02-24T11:11:37.226Z,3571.88
2019-02-24T11:12:37.127Z,3543.75
2019-02-24T11:13:37.139Z,3504.38
2019-02-24T11:14:37.090Z,3510.00
2019-02-24T11:15:37.151Z,3526.88
2019-02-24T11:16:37.071Z,3470.62
2019-02-24T11:17:37.089Z,3521.25
2019-02-24T11:18:37.050Z,3549.38
2019-02-24T11:19:37.077Z,3566.25
2019-02-24T11:20:37.027Z,3701.25
2019-02-24T11:21:37.092Z,3678.75
2019-02-24T11:22:37.044Z,3622.50
2019-02-24T11:23:37.107Z,3571.88
2019-02-24T11:24:36.989Z,3543.75
2019-02-24T11:25:37.016Z,3493.12
2019-02-24T11:26:36.964Z,3465.00
2019-02-24T11:27:37.058Z,3555.00
2019-02-24T11:28:36.945Z,3628.12
2019-02-24T11:29:37.043Z,3706.88
2019-02-24T11:30:36.926Z,3695.62
2019-02-24T11:31:38.579Z,3701.25
2019-02-24T11:32:36.931Z,3774.38
2019-02-24T11:33:36.968Z,3751.88
2019-02-24T11:34:36.900Z,3825.00
2019-02-24T11:35:36.879Z,3864.38
2019-02-24T11:36:36.879Z,3853.12
2019-02-24T11:37:36.953Z,3633.75
2019-02-24T11:38:36.838Z,3600.00
2019-02-24T11:39:37.314Z,3611.25
2019-02-24T11:40:36.815Z,3870.00
2019-02-24T11:41:36.818Z,3853.12
2019-02-24T11:42:36.808Z,3712.50
2019-02-24T11:43:36.833Z,3695.62
2019-02-24T11:44:36.777Z,3954.38
2019-02-24T11:45:36.846Z,3791.25
2019-02-24T11:46:37.150Z,4106.25
2019-02-24T11:47:36.784Z,3515.62
2019-02-24T11:48:36.733Z,4162.50
2019-02-24T11:49:37.802Z,3200.62
2019-02-24T11:50:36.715Z,4449.38
2019-02-24T11:51:38.738Z,3228.75
2019-02-24T11:52:36.708Z,3999.38
2019-02-24T11:53:36.696Z,4505.62
2019-02-24T11:54:36.669Z,2745.00
2019-02-24T11:55:36.718Z,4618.12
2019-02-24T11:56:36.652Z,4168.12
2019-02-24T11:57:36.764Z,2722.50
2019-02-24T11:58:36.636Z,4916.25
2019-02-24T11:59:36.641Z,4066.88
2019-02-24T12:00:36.617Z,2514.38
2019-02-24T12:01:36.647Z,4781.25
2019-02-24T12:02:36.625Z,4916.25
2019-02-24T12:03:36.663Z,2846.25
2019-02-24T12:04:36.577Z,4522.50
2019-02-24T12:05:36.572Z,4747.50
2019-02-24T12:06:36.570Z,2531.25
2019-02-24T12:07:36.591Z,4010.62
2019-02-24T12:08:36.546Z,5236.88
2019-02-24T12:09:36.601Z,3268.12
2019-02-24T12:10:36.506Z,3414.38
2019-02-24T12:11:36.513Z,5377.50
2019-02-24T12:12:36.515Z,3628.12
2019-02-24T12:13:36.553Z,3116.25
2019-02-24T12:14:36.470Z,5146.88
2019-02-24T12:15:36.541Z,4123.12
2019-02-24T12:16:36.449Z,3060.00
2019-02-24T12:17:36.453Z,4809.38
2019-02-24T12:18:36.439Z,4618.12
2019-02-24T12:19:36.464Z,3133.12
2019-02-24T12:20:36.406Z,4381.88
2019-02-24T12:21:36.478Z,4921.88
2019-02-24T12:22:36.396Z,3200.62
2019-02-24T12:23:36.816Z,3555.00
2019-02-24T12:24:36.363Z,5225.62
2019-02-24T12:25:36.414Z,4072.50
2019-02-24T12:26:36.346Z,3228.75
2019-02-24T12:27:36.421Z,4618.12
2019-02-24T12:28:37.157Z,4505.62
2019-02-24T12:29:36.328Z,3245.62
2019-02-24T12:30:36.306Z,3920.62
2019-02-24T12:31:36.345Z,4933.12
2019-02-24T12:32:36.287Z,3937.50
2019-02-24T12:33:37.415Z,3526.88
2019-02-24T12:34:36.273Z,4702.50
2019-02-24T12:35:36.384Z,4730.62
2019-02-24T12:36:36.247Z,3504.38
2019-02-24T12:37:36.288Z,3999.38
2019-02-24T12:38:36.245Z,4584.38
2019-02-24T12:39:38.244Z,3926.25
2019-02-24T12:40:36.210Z,3420.00
2019-02-24T12:41:37.233Z,4190.62
2019-02-24T12:42:36.193Z,4663.12
2019-02-24T12:43:36.246Z,3825.00
2019-02-24T12:44:37.139Z,3521.25
2019-02-24T12:45:36.237Z,4331.25